sensor_id;sensor_type;location;lat;lon;timestamp;pressure;altitude;pressure_sealevel;temperature;humidity
74573;BME280;63071;51.526;-0.134;2022-10-16T00:02:23;100141.91;;;23.63;36.95
74573;BME280;63071;51.526;-0.134;2022-10-16T00:04:48;100143.06;;;23.62;36.75
74573;BME280;63071;51.526;-0.134;2022-10-16T00:07:14;100141.53;;;23.61;36.75
74573;BME280;63071;51.526;-0.134;2022-10-16T00:09:39;100143.47;;;23.60;37.16
74573;BME280;63071;51.526;-0.134;2022-10-16T00:12:04;100144.22;;;23.61;36.84
74573;BME280;63071;51.526;-0.134;2022-10-16T00:14:32;100143.47;;;23.57;36.97
74573;BME280;63071;51.526;-0.134;2022-10-16T00:16:57;100146.88;;;23.61;36.90
74573;BME280;63071;51.526;-0.134;2022-10-16T00:19:23;100136.22;;;23.61;36.99
74573;BME280;63071;51.526;-0.134;2022-10-16T00:21:48;100152.22;;;23.61;37.01
74573;BME280;63071;51.526;-0.134;2022-10-16T00:24:13;100157.19;;;23.59;36.97
74573;BME280;63071;51.526;-0.134;2022-10-16T00:26:39;100157.53;;;23.61;36.99
74573;BME280;63071;51.526;-0.134;2022-10-16T00:29:05;100165.19;;;23.59;37.14
74573;BME280;63071;51.526;-0.134;2022-10-16T00:31:31;100153.34;;;23.60;37.41
74573;BME280;63071;51.526;-0.134;2022-10-16T00:33:57;100165.19;;;23.59;37.04
74573;BME280;63071;51.526;-0.134;2022-10-16T00:36:25;100166.31;;;23.62;37.03
74573;BME280;63071;51.526;-0.134;2022-10-16T00:38:53;100170.13;;;23.60;36.91
74573;BME280;63071;51.526;-0.134;2022-10-16T00:41:20;100162.88;;;23.61;37.16
74573;BME280;63071;51.526;-0.134;2022-10-16T00:43:49;100157.19;;;23.59;36.81
74573;BME280;63071;51.526;-0.134;2022-10-16T00:51:23;100164.38;;;23.62;37.24
74573;BME280;63071;51.526;-0.134;2022-10-16T00:53:50;100170.88;;;23.61;36.97
74573;BME280;63071;51.526;-0.134;2022-10-16T00:56:17;100154.13;;;23.60;37.22
74573;BME280;63071;51.526;-0.134;2022-10-16T00:58:43;100170.88;;;23.61;37.11
74573;BME280;63071;51.526;-0.134;2022-10-16T01:01:08;100170.88;;;23.61;36.99
74573;BME280;63071;51.526;-0.134;2022-10-16T01:03:36;100165.56;;;23.61;37.03
74573;BME280;63071;51.526;-0.134;2022-10-16T01:09:28;100166.31;;;23.62;37.12
74573;BME280;63071;51.526;-0.134;2022-10-16T01:12:09;100170.13;;;23.60;36.95
74573;BME280;63071;51.526;-0.134;2022-10-16T01:14:58;100169.75;;;23.58;37.21
74573;BME280;63071;51.526;-0.134;2022-10-16T01:20:37;100190.31;;;23.58;37.33
74573;BME280;63071;51.526;-0.134;2022-10-16T01:28:54;100188.81;;;23.57;37.29
74573;BME280;63071;51.526;-0.134;2022-10-16T01:31:25;100187.66;;;23.58;37.16
74573;BME280;63071;51.526;-0.134;2022-10-16T01:34:00;100189.94;;;23.56;37.20
74573;BME280;63071;51.526;-0.134;2022-10-16T01:36:41;100179.28;;;23.56;37.14
74573;BME280;63071;51.526;-0.134;2022-10-16T01:39:10;100196.06;;;23.56;37.15
74573;BME280;63071;51.526;-0.134;2022-10-16T01:41:45;100197.56;;;23.54;37.55
74573;BME280;63071;51.526;-0.134;2022-10-16T01:44:31;100206.72;;;23.56;37.34
74573;BME280;63071;51.526;-0.134;2022-10-16T01:46:59;100201.03;;;23.54;37.28
74573;BME280;63071;51.526;-0.134;2022-10-16T01:49:30;100201.78;;;23.55;37.01
74573;BME280;63071;51.526;-0.134;2022-10-16T01:52:02;100201.78;;;23.55;37.32
74573;BME280;63071;51.526;-0.134;2022-10-16T01:54:32;100199.47;;;23.53;36.96
74573;BME280;63071;51.526;-0.134;2022-10-16T01:57:01;100193.41;;;23.53;37.20
74573;BME280;63071;51.526;-0.134;2022-10-16T01:59:32;100205.94;;;23.56;37.26
74573;BME280;63071;51.526;-0.134;2022-10-16T02:02:06;100202.91;;;23.54;37.16
74573;BME280;63071;51.526;-0.134;2022-10-16T02:04:37;100217.41;;;23.53;37.22
74573;BME280;63071;51.526;-0.134;2022-10-16T02:07:05;100205.97;;;23.52;37.21
74573;BME280;63071;51.526;-0.134;2022-10-16T02:09:33;100202.53;;;23.52;37.23
74573;BME280;63071;51.526;-0.134;2022-10-16T02:12:05;100209.41;;;23.53;37.25
74573;BME280;63071;51.526;-0.134;2022-10-16T02:14:32;100204.44;;;23.51;37.23
74573;BME280;63071;51.526;-0.134;2022-10-16T02:16:57;100213.97;;;23.52;37.35
74573;BME280;63071;51.526;-0.134;2022-10-16T02:19:24;100215.13;;;23.51;37.28
74573;BME280;63071;51.526;-0.134;2022-10-16T02:22:03;100235.69;;;23.51;37.30
74573;BME280;63071;51.526;-0.134;2022-10-16T02:24:42;100239.50;;;23.50;37.23
74573;BME280;63071;51.526;-0.134;2022-10-16T02:29:55;100247.50;;;23.50;37.50
74573;BME280;63071;51.526;-0.134;2022-10-16T02:32:30;100217.78;;;23.48;37.11
74573;BME280;63071;51.526;-0.134;2022-10-16T02:34:58;100235.31;;;23.49;37.05
74573;BME280;63071;51.526;-0.134;2022-10-16T02:37:25;100240.28;;;23.47;37.26
74573;BME280;63071;51.526;-0.134;2022-10-16T02:39:54;100231.16;;;23.40;37.31
74573;BME280;63071;51.526;-0.134;2022-10-16T02:42:20;100239.13;;;23.48;37.21
74573;BME280;63071;51.526;-0.134;2022-10-16T02:44:46;100240.28;;;23.47;37.26
74573;BME280;63071;51.526;-0.134;2022-10-16T02:47:11;100247.91;;;23.48;37.20
74573;BME280;63071;51.526;-0.134;2022-10-16T02:49:37;100258.56;;;23.48;37.19
74573;BME280;63071;51.526;-0.134;2022-10-16T02:52:03;100259.69;;;23.47;37.26
74573;BME280;63071;51.526;-0.134;2022-10-16T02:54:28;100252.47;;;23.40;37.20
74573;BME280;63071;51.526;-0.134;2022-10-16T02:56:54;100272.66;;;23.49;37.10
74573;BME280;63071;51.526;-0.134;2022-10-16T02:59:19;100278.38;;;23.47;37.19
74573;BME280;63071;51.526;-0.134;2022-10-16T03:01:45;100274.56;;;23.45;37.23
74573;BME280;63071;51.526;-0.134;2022-10-16T03:04:10;100266.94;;;23.47;37.33
74573;BME280;63071;51.526;-0.134;2022-10-16T03:06:35;100284.09;;;23.46;37.08
74573;BME280;63071;51.526;-0.134;2022-10-16T03:09:01;100278.00;;;23.49;37.08
74573;BME280;63071;51.526;-0.134;2022-10-16T03:11:26;100292.09;;;23.46;37.51
74573;BME280;63071;51.526;-0.134;2022-10-16T03:13:53;100292.47;;;23.40;37.18
74573;BME280;63071;51.526;-0.134;2022-10-16T03:16:19;100292.88;;;23.43;37.16
74573;BME280;63071;51.526;-0.134;2022-10-16T03:18:48;100298.19;;;23.43;37.13
74573;BME280;63071;51.526;-0.134;2022-10-16T03:21:14;100302.38;;;23.44;37.25
74573;BME280;63071;51.526;-0.134;2022-10-16T03:23:40;100302.38;;;23.44;37.05
74573;BME280;63071;51.526;-0.134;2022-10-16T03:26:05;100307.72;;;23.44;37.25
74573;BME280;63071;51.526;-0.134;2022-10-16T03:28:31;100311.91;;;23.45;37.00
74573;BME280;63071;51.526;-0.134;2022-10-16T03:30:56;100304.28;;;23.43;36.82
74573;BME280;63071;51.526;-0.134;2022-10-16T03:33:22;100297.44;;;23.38;36.96
74573;BME280;63071;51.526;-0.134;2022-10-16T03:35:54;100305.81;;;23.44;36.84
74573;BME280;63071;51.526;-0.134;2022-10-16T03:38:20;100309.25;;;23.45;36.97
74573;BME280;63071;51.526;-0.134;2022-10-16T03:40:47;100308.88;;;23.43;36.91
74573;BME280;63071;51.526;-0.134;2022-10-16T03:43:12;100308.50;;;23.44;37.04
74573;BME280;63071;51.526;-0.134;2022-10-16T03:45:38;100314.94;;;23.43;37.01
74573;BME280;63071;51.526;-0.134;2022-10-16T03:48:03;100310.78;;;23.42;37.01
74573;BME280;63071;51.526;-0.134;2022-10-16T03:50:29;100311.53;;;23.43;36.81
74573;BME280;63071;51.526;-0.134;2022-10-16T03:52:55;100318.38;;;23.44;36.99
74573;BME280;63071;51.526;-0.134;2022-10-16T03:55:20;100320.28;;;23.43;37.22
74573;BME280;63071;51.526;-0.134;2022-10-16T03:57:46;100324.88;;;23.43;36.94
74573;BME280;63071;51.526;-0.134;2022-10-16T04:00:12;100321.81;;;23.40;37.03
74573;BME280;63071;51.526;-0.134;2022-10-16T04:02:38;100322.56;;;23.41;37.08
74573;BME280;63071;51.526;-0.134;2022-10-16T04:05:04;100340.13;;;23.42;37.04
74573;BME280;63071;51.526;-0.134;2022-10-16T04:07:30;100336.66;;;23.42;37.15
74573;BME280;63071;51.526;-0.134;2022-10-16T04:09:55;100348.50;;;23.40;36.75
74573;BME280;63071;51.526;-0.134;2022-10-16T04:12:22;100346.94;;;23.39;37.02
74573;BME280;63071;51.526;-0.134;2022-10-16T04:14:47;100355.34;;;23.42;37.00
74573;BME280;63071;51.526;-0.134;2022-10-16T04:17:13;100363.72;;;23.44;36.83
74573;BME280;63071;51.526;-0.134;2022-10-16T04:19:38;100357.25;;;23.41;37.07
74573;BME280;63071;51.526;-0.134;2022-10-16T04:22:04;100367.53;;;23.43;36.95
74573;BME280;63071;51.526;-0.134;2022-10-16T04:24:29;100375.53;;;23.43;36.77
74573;BME280;63071;51.526;-0.134;2022-10-16T04:26:54;100379.72;;;23.44;36.94
74573;BME280;63071;51.526;-0.134;2022-10-16T04:29:20;100395.72;;;23.44;36.90
74573;BME280;63071;51.526;-0.134;2022-10-16T04:31:46;100401.06;;;23.44;37.03
74573;BME280;63071;51.526;-0.134;2022-10-16T04:34:11;100396.50;;;23.44;36.88
74573;BME280;63071;51.526;-0.134;2022-10-16T04:36:37;100404.50;;;23.44;36.68
74573;BME280;63071;51.526;-0.134;2022-10-16T04:39:02;100407.94;;;23.45;36.89
74573;BME280;63071;51.526;-0.134;2022-10-16T04:41:28;100417.44;;;23.46;36.79
74573;BME280;63071;51.526;-0.134;2022-10-16T04:43:53;100418.22;;;23.43;36.83
74573;BME280;63071;51.526;-0.134;2022-10-16T04:46:19;100418.22;;;23.43;36.84
74573;BME280;63071;51.526;-0.134;2022-10-16T04:48:44;100428.50;;;23.44;36.86
74573;BME280;63071;51.526;-0.134;2022-10-16T04:51:10;100427.72;;;23.44;37.06
74573;BME280;63071;51.526;-0.134;2022-10-16T04:53:35;100433.47;;;23.42;37.03
74573;BME280;63071;51.526;-0.134;2022-10-16T04:56:01;100426.59;;;23.41;37.10
74573;BME280;63071;51.526;-0.134;2022-10-16T04:58:27;100443.34;;;23.42;36.93
74573;BME280;63071;51.526;-0.134;2022-10-16T05:00:53;100444.88;;;23.43;37.04
74573;BME280;63071;51.526;-0.134;2022-10-16T05:03:18;100449.47;;;23.42;36.85
74573;BME280;63071;51.526;-0.134;2022-10-16T05:05:45;100451.34;;;23.42;37.08
74573;BME280;63071;51.526;-0.134;2022-10-16T05:08:12;100454.00;;;23.42;36.93
74573;BME280;63071;51.526;-0.134;2022-10-16T05:10:38;100475.34;;;23.42;36.83
74573;BME280;63071;51.526;-0.134;2022-10-16T05:13:04;100473.44;;;23.38;36.76
74573;BME280;63071;51.526;-0.134;2022-10-16T05:15:29;100466.22;;;23.39;36.76
74573;BME280;63071;51.526;-0.134;2022-10-16T05:17:55;100484.88;;;23.39;36.79
74573;BME280;63071;51.526;-0.134;2022-10-16T05:20:22;100475.38;;;23.38;36.92
74573;BME280;63071;51.526;-0.134;2022-10-16T05:22:47;100473.06;;;23.36;36.87
74573;BME280;63071;51.526;-0.134;2022-10-16T05:25:13;100481.06;;;23.36;36.87
74573;BME280;63071;51.526;-0.134;2022-10-16T05:27:38;100480.31;;;23.36;37.05
74573;BME280;63071;51.526;-0.134;2022-10-16T05:30:04;100487.16;;;23.37;36.61
74573;BME280;63071;51.526;-0.134;2022-10-16T05:32:30;100496.31;;;23.36;36.77
74573;BME280;63071;51.526;-0.134;2022-10-16T05:34:55;100495.94;;;23.34;36.84
74573;BME280;63071;51.526;-0.134;2022-10-16T05:37:21;100505.81;;;23.37;36.95
74573;BME280;63071;51.526;-0.134;2022-10-16T05:39:46;100510.41;;;23.36;36.79
74573;BME280;63071;51.526;-0.134;2022-10-16T05:42:11;100511.53;;;23.35;36.80
74573;BME280;63071;51.526;-0.134;2022-10-16T05:44:37;100516.88;;;23.35;36.72
74573;BME280;63071;51.526;-0.134;2022-10-16T05:47:02;100519.91;;;23.37;36.89
74573;BME280;63071;51.526;-0.134;2022-10-16T05:49:28;100527.16;;;23.37;36.70
74573;BME280;63071;51.526;-0.134;2022-10-16T05:51:53;100527.91;;;23.37;36.67
74573;BME280;63071;51.526;-0.134;2022-10-16T05:54:19;100528.69;;;23.38;36.68
74573;BME280;63071;51.526;-0.134;2022-10-16T05:56:44;100531.75;;;23.36;36.66
74573;BME280;63071;51.526;-0.134;2022-10-16T05:59:09;100534.41;;;23.36;36.70
74573;BME280;63071;51.526;-0.134;2022-10-16T06:01:35;100542.41;;;23.36;36.64
74573;BME280;63071;51.526;-0.134;2022-10-16T06:04:01;100535.16;;;23.33;36.81
74573;BME280;63071;51.526;-0.134;2022-10-16T06:06:28;100537.84;;;23.37;36.67
74573;BME280;63071;51.526;-0.134;2022-10-16T06:08:54;100543.16;;;23.37;36.78
74573;BME280;63071;51.526;-0.134;2022-10-16T06:11:24;100553.06;;;23.36;36.60
74573;BME280;63071;51.526;-0.134;2022-10-16T06:13:55;100551.94;;;23.34;36.59
74573;BME280;63071;51.526;-0.134;2022-10-16T06:16:26;100558.03;;;23.38;36.42
74573;BME280;63071;51.526;-0.134;2022-10-16T06:18:52;100567.53;;;23.35;36.46
74573;BME280;63071;51.526;-0.134;2022-10-16T06:21:23;100558.41;;;23.36;36.24
74573;BME280;63071;51.526;-0.134;2022-10-16T06:23:52;100575.94;;;23.37;36.53
74573;BME280;63071;51.526;-0.134;2022-10-16T06:26:21;100575.16;;;23.37;36.49
74573;BME280;63071;51.526;-0.134;2022-10-16T06:28:48;100566.75;;;23.31;36.72
74573;BME280;63071;51.526;-0.134;2022-10-16T06:31:15;100571.75;;;23.36;36.63
74573;BME280;63071;51.526;-0.134;2022-10-16T06:33:42;100564.09;;;23.28;36.61
74573;BME280;63071;51.526;-0.134;2022-10-16T06:36:11;100565.25;;;23.30;36.59
74573;BME280;63071;51.526;-0.134;2022-10-16T06:38:37;100580.88;;;23.35;36.80
74573;BME280;63071;51.526;-0.134;2022-10-16T06:41:04;100585.06;;;23.36;36.80
74573;BME280;63071;51.526;-0.134;2022-10-16T06:43:31;100577.06;;;23.36;36.31
74573;BME280;63071;51.526;-0.134;2022-10-16T06:46:01;100577.84;;;23.37;36.61
74573;BME280;63071;51.526;-0.134;2022-10-16T06:48:28;100583.16;;;23.37;36.17
74573;BME280;63071;51.526;-0.134;2022-10-16T06:50:58;100585.06;;;23.36;36.77
74573;BME280;63071;51.526;-0.134;2022-10-16T06:53:25;100591.16;;;23.33;36.47
74573;BME280;63071;51.526;-0.134;2022-10-16T06:55:51;100598.03;;;23.34;36.47
74573;BME280;63071;51.526;-0.134;2022-10-16T06:58:18;100610.97;;;23.32;36.44
74573;BME280;63071;51.526;-0.134;2022-10-16T07:00:43;100614.03;;;23.34;36.58
74573;BME280;63071;51.526;-0.134;2022-10-16T07:03:09;100622.03;;;23.34;36.50
74573;BME280;63071;51.526;-0.134;2022-10-16T07:05:39;100619.34;;;23.31;36.57
74573;BME280;63071;51.526;-0.134;2022-10-16T07:08:05;100632.69;;;23.34;36.21
74573;BME280;63071;51.526;-0.134;2022-10-16T07:10:31;100632.69;;;23.34;36.45
74573;BME280;63071;51.526;-0.134;2022-10-16T07:12:57;100640.69;;;23.34;36.28
74573;BME280;63071;51.526;-0.134;2022-10-16T07:15:22;100640.69;;;23.34;36.31
74573;BME280;63071;51.526;-0.134;2022-10-16T07:17:48;100651.38;;;23.34;36.40
74573;BME280;63071;51.526;-0.134;2022-10-16T07:20:13;100654.41;;;23.33;36.68
74573;BME280;63071;51.526;-0.134;2022-10-16T07:22:39;100656.31;;;23.32;36.59
74573;BME280;63071;51.526;-0.134;2022-10-16T07:25:05;100668.47;;;23.33;36.10
74573;BME280;63071;51.526;-0.134;2022-10-16T07:27:30;100666.56;;;23.27;36.70
74573;BME280;63071;51.526;-0.134;2022-10-16T07:29:55;100663.91;;;23.30;36.59
74573;BME280;63071;51.526;-0.134;2022-10-16T07:32:21;100671.94;;;23.34;35.84
74573;BME280;63071;51.526;-0.134;2022-10-16T07:34:46;100672.69;;;23.34;36.49
74573;BME280;63071;51.526;-0.134;2022-10-16T07:37:12;100683.38;;;23.34;36.34
74573;BME280;63071;51.526;-0.134;2022-10-16T07:39:37;100682.59;;;23.34;36.34
74573;BME280;63071;51.526;-0.134;2022-10-16T07:42:03;100683.72;;;23.33;36.26
74573;BME280;63071;51.526;-0.134;2022-10-16T07:44:28;100689.81;;;23.33;36.34
74573;BME280;63071;51.526;-0.134;2022-10-16T07:46:54;100691.72;;;23.33;36.54
74573;BME280;63071;51.526;-0.134;2022-10-16T07:49:19;100677.59;;;23.25;36.18
74573;BME280;63071;51.526;-0.134;2022-10-16T07:51:44;100706.22;;;23.32;36.20
74573;BME280;63071;51.526;-0.134;2022-10-16T07:54:10;100706.97;;;23.32;36.52
74573;BME280;63071;51.526;-0.134;2022-10-16T07:56:35;100703.56;;;23.32;36.18
74573;BME280;63071;51.526;-0.134;2022-10-16T07:59:01;100708.09;;;23.31;36.57
74573;BME280;63071;51.526;-0.134;2022-10-16T08:01:27;100719.16;;;23.30;36.45
74573;BME280;63071;51.526;-0.134;2022-10-16T08:03:52;100714.19;;;23.28;36.52
74573;BME280;63071;51.526;-0.134;2022-10-16T08:06:20;100721.03;;;23.29;36.18
74573;BME280;63071;51.526;-0.134;2022-10-16T08:08:46;100722.22;;;23.32;36.38
74573;BME280;63071;51.526;-0.134;2022-10-16T08:11:12;100720.31;;;23.32;35.94
74573;BME280;63071;51.526;-0.134;2022-10-16T08:13:39;100723.72;;;23.33;36.55
74573;BME280;63071;51.526;-0.134;2022-10-16T08:16:05;100727.16;;;23.33;36.02
74573;BME280;63071;51.526;-0.134;2022-10-16T08:18:35;100726.41;;;23.33;36.64
74573;BME280;63071;51.526;-0.134;2022-10-16T08:21:01;100732.50;;;23.30;36.34
74573;BME280;63071;51.526;-0.134;2022-10-16T08:23:28;100741.66;;;23.32;36.15
74573;BME280;63071;51.526;-0.134;2022-10-16T08:25:55;100745.81;;;23.33;36.39
74573;BME280;63071;51.526;-0.134;2022-10-16T08:28:22;100747.38;;;23.34;36.39
74573;BME280;63071;51.526;-0.134;2022-10-16T08:30:48;100756.88;;;23.35;36.49
74573;BME280;63071;51.526;-0.134;2022-10-16T08:33:14;100758.03;;;23.34;36.22
74573;BME280;63071;51.526;-0.134;2022-10-16T08:35:39;100762.22;;;23.35;36.22
74573;BME280;63071;51.526;-0.134;2022-10-16T08:38:06;100759.56;;;23.35;36.32
74573;BME280;63071;51.526;-0.134;2022-10-16T08:40:34;100771.38;;;23.34;36.12
74573;BME280;63071;51.526;-0.134;2022-10-16T08:45:43;100774.44;;;23.36;35.98
74573;BME280;63071;51.526;-0.134;2022-10-16T08:50:44;100780.50;;;23.30;36.27
74573;BME280;63071;51.526;-0.134;2022-10-16T08:53:41;100790.44;;;23.36;36.12
74573;BME280;63071;51.526;-0.134;2022-10-16T08:56:08;100788.53;;;23.37;36.22
74573;BME280;63071;51.526;-0.134;2022-10-16T08:58:34;100788.53;;;23.37;36.21
74573;BME280;63071;51.526;-0.134;2022-10-16T09:01:03;100795.78;;;23.36;36.16
74573;BME280;63071;51.526;-0.134;2022-10-16T09:11:37;100806.47;;;23.40;36.05
74573;BME280;63071;51.526;-0.134;2022-10-16T09:14:42;100811.81;;;23.40;36.27
74573;BME280;63071;51.526;-0.134;2022-10-16T09:20:26;100811.03;;;23.39;35.95
74573;BME280;63071;51.526;-0.134;2022-10-16T09:23:18;100816.38;;;23.39;36.33
74573;BME280;63071;51.526;-0.134;2022-10-16T09:25:49;100809.50;;;23.38;35.89
74573;BME280;63071;51.526;-0.134;2022-10-16T09:28:17;100814.09;;;23.38;36.24
74573;BME280;63071;51.526;-0.134;2022-10-16T09:30:44;100804.94;;;23.39;36.21
74573;BME280;63071;51.526;-0.134;2022-10-16T09:33:12;100812.56;;;23.40;35.81
74573;BME280;63071;51.526;-0.134;2022-10-16T09:35:42;100820.97;;;23.43;36.09
74573;BME280;63071;51.526;-0.134;2022-10-16T09:38:41;100815.63;;;23.43;36.16
74573;BME280;63071;51.526;-0.134;2022-10-16T09:41:21;100821.38;;;23.45;36.03
74573;BME280;63071;51.526;-0.134;2022-10-16T09:43:53;100820.97;;;23.43;36.28
74573;BME280;63071;51.526;-0.134;2022-10-16T09:46:32;100834.72;;;23.45;35.87
74573;BME280;63071;51.526;-0.134;2022-10-16T09:49:00;100827.06;;;23.43;36.05
74573;BME280;63071;51.526;-0.134;2022-10-16T09:51:33;100827.47;;;23.45;36.03
74573;BME280;63071;51.526;-0.134;2022-10-16T09:54:13;100825.56;;;23.46;36.08
74573;BME280;63071;51.526;-0.134;2022-10-16T09:56:39;100825.94;;;23.48;36.19
74573;BME280;63071;51.526;-0.134;2022-10-16T09:59:19;100822.53;;;23.47;35.97
74573;BME280;63071;51.526;-0.134;2022-10-16T10:01:48;100833.94;;;23.48;36.10
74573;BME280;63071;51.526;-0.134;2022-10-16T10:04:19;100836.63;;;23.48;36.08
74573;BME280;63071;51.526;-0.134;2022-10-16T10:06:57;100826.75;;;23.48;36.04
74573;BME280;63071;51.526;-0.134;2022-10-16T10:11:57;100838.16;;;23.49;35.99
74573;BME280;63071;51.526;-0.134;2022-10-16T10:14:35;100835.50;;;23.49;36.14
74573;BME280;63071;51.526;-0.134;2022-10-16T10:22:16;100858.75;;;23.52;35.87
74573;BME280;63071;51.526;-0.134;2022-10-16T10:24:44;100857.25;;;23.51;36.24
74573;BME280;63071;51.526;-0.134;2022-10-16T10:27:16;100858.75;;;23.52;35.73
74573;BME280;63071;51.526;-0.134;2022-10-16T10:30:10;100853.41;;;23.48;36.04
74573;BME280;63071;51.526;-0.134;2022-10-16T10:35:30;100845.03;;;23.50;36.00
74573;BME280;63071;51.526;-0.134;2022-10-16T10:45:47;100840.06;;;23.52;35.99
74573;BME280;63071;51.526;-0.134;2022-10-16T10:51:10;100842.75;;;23.52;35.98
74573;BME280;63071;51.526;-0.134;2022-10-16T10:54:07;100840.88;;;23.52;35.89
74573;BME280;63071;51.526;-0.134;2022-10-16T11:02:30;100832.47;;;23.54;35.99
74573;BME280;63071;51.526;-0.134;2022-10-16T11:07:51;100840.47;;;23.54;35.96
74573;BME280;63071;51.526;-0.134;2022-10-16T11:15:58;100842.03;;;23.55;36.01
74573;BME280;63071;51.526;-0.134;2022-10-16T11:18:37;100840.47;;;23.54;35.96
74573;BME280;63071;51.526;-0.134;2022-10-16T11:21:10;100841.63;;;23.53;35.88
74573;BME280;63071;51.526;-0.134;2022-10-16T11:23:46;100839.34;;;23.55;35.63
74573;BME280;63071;51.526;-0.134;2022-10-16T11:26:25;100832.06;;;23.52;35.94
74573;BME280;63071;51.526;-0.134;2022-10-16T11:28:54;100830.97;;;23.53;36.07
74573;BME280;63071;51.526;-0.134;2022-10-16T11:31:43;100832.88;;;23.56;35.44
74573;BME280;63071;51.526;-0.134;2022-10-16T11:36:59;100826.78;;;23.55;35.87
74573;BME280;63071;51.526;-0.134;2022-10-16T11:39:30;100829.44;;;23.55;35.84
74573;BME280;63071;51.526;-0.134;2022-10-16T11:42:21;100827.13;;;23.54;35.82
74573;BME280;63071;51.526;-0.134;2022-10-16T11:50:53;100832.47;;;23.54;35.88
74573;BME280;63071;51.526;-0.134;2022-10-16T11:53:56;100828.69;;;23.55;35.88
74573;BME280;63071;51.526;-0.134;2022-10-16T11:56:24;100831.00;;;23.56;35.79
74573;BME280;63071;51.526;-0.134;2022-10-16T12:01:40;100831.00;;;23.60;35.75
74573;BME280;63071;51.526;-0.134;2022-10-16T12:04:31;100831.78;;;23.60;35.56
74573;BME280;63071;51.526;-0.134;2022-10-16T12:07:06;100829.13;;;23.60;35.67
74573;BME280;63071;51.526;-0.134;2022-10-16T12:09:38;100827.59;;;23.63;35.73
74573;BME280;63071;51.526;-0.134;2022-10-16T12:12:22;100828.00;;;23.65;35.75
74573;BME280;63071;51.526;-0.134;2022-10-16T12:15:00;100828.00;;;23.65;35.38
74573;BME280;63071;51.526;-0.134;2022-10-16T12:17:37;100823.06;;;23.67;35.78
74573;BME280;63071;51.526;-0.134;2022-10-16T12:22:50;100816.19;;;23.70;35.67
74573;BME280;63071;51.526;-0.134;2022-10-16T12:25:31;100824.59;;;23.72;35.68
74573;BME280;63071;51.526;-0.134;2022-10-16T12:30:28;100821.19;;;23.75;35.62
74573;BME280;63071;51.526;-0.134;2022-10-16T12:33:04;100819.66;;;23.74;35.73
74573;BME280;63071;51.526;-0.134;2022-10-16T12:35:34;100823.50;;;23.76;35.48
74573;BME280;63071;51.526;-0.134;2022-10-16T12:40:44;100805.25;;;23.78;35.57
74573;BME280;63071;51.526;-0.134;2022-10-16T12:43:25;100799.91;;;23.78;35.82
74573;BME280;63071;51.526;-0.134;2022-10-16T12:48:37;100794.97;;;23.81;35.63
74573;BME280;63071;51.526;-0.134;2022-10-16T12:51:55;100796.88;;;23.84;35.59
74573;BME280;63071;51.526;-0.134;2022-10-16T13:08:30;100791.16;;;23.82;35.49
74573;BME280;63071;51.526;-0.134;2022-10-16T13:11:05;100798.03;;;23.86;35.70
74573;BME280;63071;51.526;-0.134;2022-10-16T13:22:39;100797.69;;;23.91;35.50
74573;BME280;63071;51.526;-0.134;2022-10-16T13:28:10;100803.00;;;23.88;35.88
74573;BME280;63071;51.526;-0.134;2022-10-16T13:30:51;100796.16;;;23.87;35.45
74573;BME280;63071;51.526;-0.134;2022-10-16T13:33:33;100799.56;;;23.87;35.46
74573;BME280;63071;51.526;-0.134;2022-10-16T13:36:02;100795.34;;;23.86;35.37
74573;BME280;63071;51.526;-0.134;2022-10-16T13:38:30;100797.28;;;23.86;35.39
74573;BME280;63071;51.526;-0.134;2022-10-16T13:41:00;100799.94;;;23.86;35.66
74573;BME280;63071;51.526;-0.134;2022-10-16T13:46:00;100780.84;;;23.84;35.50
74573;BME280;63071;51.526;-0.134;2022-10-16T13:48:27;100786.59;;;23.86;35.42
74573;BME280;63071;51.526;-0.134;2022-10-16T13:51:14;100775.91;;;23.86;35.50
74573;BME280;63071;51.526;-0.134;2022-10-16T13:53:41;100783.16;;;23.85;35.58
74573;BME280;63071;51.526;-0.134;2022-10-16T13:56:19;100777.06;;;23.85;35.38
74573;BME280;63071;51.526;-0.134;2022-10-16T13:58:45;100773.63;;;23.84;35.53
74573;BME280;63071;51.526;-0.134;2022-10-16T14:01:18;100764.09;;;23.83;35.47
74573;BME280;63071;51.526;-0.134;2022-10-16T14:03:46;100776.69;;;23.83;35.56
74573;BME280;63071;51.526;-0.134;2022-10-16T14:06:16;100779.75;;;23.85;35.46
74573;BME280;63071;51.526;-0.134;2022-10-16T14:08:46;100786.59;;;23.86;35.47
74573;BME280;63071;51.526;-0.134;2022-10-16T14:11:21;100769.41;;;23.79;35.68
74573;BME280;63071;51.526;-0.134;2022-10-16T14:13:50;100774.00;;;23.86;35.67
74573;BME280;63071;51.526;-0.134;2022-10-16T14:16:30;100783.56;;;23.87;35.36
74573;BME280;63071;51.526;-0.134;2022-10-16T14:18:57;100792.31;;;23.88;35.66
74573;BME280;63071;51.526;-0.134;2022-10-16T14:21:23;100779.38;;;23.90;35.68
74573;BME280;63071;51.526;-0.134;2022-10-16T14:23:49;100772.91;;;23.91;35.97
74573;BME280;63071;51.526;-0.134;2022-10-16T14:26:19;100772.50;;;23.92;35.67
74573;BME280;63071;51.526;-0.134;2022-10-16T14:28:46;100765.28;;;23.93;35.65
74573;BME280;63071;51.526;-0.134;2022-10-16T14:31:33;100770.63;;;23.93;35.76
74573;BME280;63071;51.526;-0.134;2022-10-16T14:33:59;100775.56;;;23.91;35.67
74573;BME280;63071;51.526;-0.134;2022-10-16T14:36:27;100768.31;;;23.91;35.57
74573;BME280;63071;51.526;-0.134;2022-10-16T14:41:26;100774.06;;;23.97;35.50
74573;BME280;63071;51.526;-0.134;2022-10-16T14:43:55;100768.75;;;23.97;35.62
74573;BME280;63071;51.526;-0.134;2022-10-16T14:46:30;100774.44;;;23.95;35.61
74573;BME280;63071;51.526;-0.134;2022-10-16T14:51:35;100774.84;;;23.97;35.77
74573;BME280;63071;51.526;-0.134;2022-10-16T14:54:01;100780.19;;;23.97;35.69
74573;BME280;63071;51.526;-0.134;2022-10-16T14:56:43;100783.22;;;23.99;35.62
74573;BME280;63071;51.526;-0.134;2022-10-16T14:59:17;100769.53;;;24.01;35.54
74573;BME280;63071;51.526;-0.134;2022-10-16T15:01:44;100764.19;;;24.01;35.70